Terminal Aerodrome Forecast
Issued by NWS

Home | Current Version | Previous Version | Text Only | Print | Product List | Glossary On
Versions: 1 2 3 4 5 6 7 8 9 10 11 12 13
000
FTUS45 KRIW 212333
TAFPNA
TAF
KPNA 212333Z 2200/2224 32006KT P6SM VCTS SCT050CB BKN100
     FM220700 30006KT P6SM SCT080
     FM221500 13008KT P6SM SCT080 BKN120
     FM222100 13012G18KT P6SM VCTS SCT060CB BKN080
      AMD LTD TO CLD VIS AND WIND=

USA.gov is the U.S. government's official web portal to all federal, state and local government web resources and services.